sensor_id;sensor_type;location;lat;lon;timestamp;P1;durP1;ratioP1;P2;durP2;ratioP2
9536;SDS011;4807;48.024;11.726;2023-08-21T00:00:21;5.43;;;4.93;;
9536;SDS011;4807;48.024;11.726;2023-08-21T00:03:30;6.30;;;5.40;;
9536;SDS011;4807;48.024;11.726;2023-08-21T00:06:39;6.27;;;5.67;;
9536;SDS011;4807;48.024;11.726;2023-08-21T00:09:48;7.67;;;5.13;;
9536;SDS011;4807;48.024;11.726;2023-08-21T00:12:56;5.73;;;5.23;;
9536;SDS011;4807;48.024;11.726;2023-08-21T00:16:04;6.37;;;5.47;;
9536;SDS011;4807;48.024;11.726;2023-08-21T00:19:13;5.23;;;4.80;;
9536;SDS011;4807;48.024;11.726;2023-08-21T00:22:22;5.77;;;5.10;;
9536;SDS011;4807;48.024;11.726;2023-08-21T00:25:31;6.23;;;5.63;;
9536;SDS011;4807;48.024;11.726;2023-08-21T00:28:39;12.03;;;5.73;;
9536;SDS011;4807;48.024;11.726;2023-08-21T00:31:47;6.33;;;5.83;;
9536;SDS011;4807;48.024;11.726;2023-08-21T00:34:55;6.20;;;5.27;;
9536;SDS011;4807;48.024;11.726;2023-08-21T00:38:05;6.50;;;5.90;;
9536;SDS011;4807;48.024;11.726;2023-08-21T00:41:13;5.90;;;5.40;;
9536;SDS011;4807;48.024;11.726;2023-08-21T00:44:21;5.80;;;5.10;;
9536;SDS011;4807;48.024;11.726;2023-08-21T00:47:30;6.17;;;5.60;;
9536;SDS011;4807;48.024;11.726;2023-08-21T00:50:38;5.70;;;5.20;;
9536;SDS011;4807;48.024;11.726;2023-08-21T00:53:49;5.70;;;5.20;;
9536;SDS011;4807;48.024;11.726;2023-08-21T00:56:58;7.13;;;5.03;;
9536;SDS011;4807;48.024;11.726;2023-08-21T01:00:07;5.40;;;4.90;;
9536;SDS011;4807;48.024;11.726;2023-08-21T01:03:17;5.87;;;5.20;;
9536;SDS011;4807;48.024;11.726;2023-08-21T01:06:26;6.27;;;5.10;;
9536;SDS011;4807;48.024;11.726;2023-08-21T01:09:39;6.10;;;5.30;;
9536;SDS011;4807;48.024;11.726;2023-08-21T01:12:56;5.70;;;5.13;;
9536;SDS011;4807;48.024;11.726;2023-08-21T01:16:13;7.00;;;5.30;;
9536;SDS011;4807;48.024;11.726;2023-08-21T01:19:26;6.10;;;5.40;;
9536;SDS011;4807;48.024;11.726;2023-08-21T01:22:43;5.53;;;5.03;;
9536;SDS011;4807;48.024;11.726;2023-08-21T01:25:53;5.90;;;5.40;;
9536;SDS011;4807;48.024;11.726;2023-08-21T01:29:02;5.23;;;4.73;;
9536;SDS011;4807;48.024;11.726;2023-08-21T01:32:12;6.40;;;5.37;;
9536;SDS011;4807;48.024;11.726;2023-08-21T01:35:31;6.37;;;5.07;;
9536;SDS011;4807;48.024;11.726;2023-08-21T01:38:44;8.27;;;5.63;;
9536;SDS011;4807;48.024;11.726;2023-08-21T01:41:56;5.27;;;4.87;;
9536;SDS011;4807;48.024;11.726;2023-08-21T01:45:05;7.73;;;5.80;;
9536;SDS011;4807;48.024;11.726;2023-08-21T01:48:15;5.07;;;4.60;;
9536;SDS011;4807;48.024;11.726;2023-08-21T01:51:24;5.80;;;5.23;;
9536;SDS011;4807;48.024;11.726;2023-08-21T01:54:32;9.30;;;5.47;;
9536;SDS011;4807;48.024;11.726;2023-08-21T01:57:41;8.40;;;4.77;;
9536;SDS011;4807;48.024;11.726;2023-08-21T02:00:50;5.37;;;4.90;;
9536;SDS011;4807;48.024;11.726;2023-08-21T02:03:59;5.07;;;4.57;;
9536;SDS011;4807;48.024;11.726;2023-08-21T02:07:07;5.77;;;5.00;;
9536;SDS011;4807;48.024;11.726;2023-08-21T02:10:15;5.87;;;5.27;;
9536;SDS011;4807;48.024;11.726;2023-08-21T02:13:25;4.83;;;4.33;;
9536;SDS011;4807;48.024;11.726;2023-08-21T02:16:34;4.73;;;4.30;;
9536;SDS011;4807;48.024;11.726;2023-08-21T02:19:43;5.10;;;4.53;;
9536;SDS011;4807;48.024;11.726;2023-08-21T02:22:52;5.70;;;5.13;;
9536;SDS011;4807;48.024;11.726;2023-08-21T02:26:00;6.10;;;4.50;;
9536;SDS011;4807;48.024;11.726;2023-08-21T02:29:10;5.50;;;4.50;;
9536;SDS011;4807;48.024;11.726;2023-08-21T02:32:18;5.40;;;4.80;;
9536;SDS011;4807;48.024;11.726;2023-08-21T02:35:27;6.00;;;4.57;;
9536;SDS011;4807;48.024;11.726;2023-08-21T02:38:35;6.73;;;4.73;;
9536;SDS011;4807;48.024;11.726;2023-08-21T02:41:44;5.17;;;4.57;;
9536;SDS011;4807;48.024;11.726;2023-08-21T02:44:53;6.23;;;4.57;;
9536;SDS011;4807;48.024;11.726;2023-08-21T02:48:03;5.70;;;4.50;;
9536;SDS011;4807;48.024;11.726;2023-08-21T02:51:13;5.83;;;4.67;;
9536;SDS011;4807;48.024;11.726;2023-08-21T02:54:22;5.93;;;5.10;;
9536;SDS011;4807;48.024;11.726;2023-08-21T02:57:30;6.83;;;4.57;;
9536;SDS011;4807;48.024;11.726;2023-08-21T03:00:40;5.47;;;5.00;;
9536;SDS011;4807;48.024;11.726;2023-08-21T03:03:48;6.37;;;5.23;;
9536;SDS011;4807;48.024;11.726;2023-08-21T03:06:56;6.30;;;5.00;;
9536;SDS011;4807;48.024;11.726;2023-08-21T03:10:05;6.67;;;5.00;;
9536;SDS011;4807;48.024;11.726;2023-08-21T03:13:14;6.83;;;5.33;;
9536;SDS011;4807;48.024;11.726;2023-08-21T03:16:27;7.07;;;5.20;;
9536;SDS011;4807;48.024;11.726;2023-08-21T03:19:35;5.77;;;5.17;;
9536;SDS011;4807;48.024;11.726;2023-08-21T03:22:44;5.23;;;4.83;;
9536;SDS011;4807;48.024;11.726;2023-08-21T03:25:52;5.00;;;4.50;;
9536;SDS011;4807;48.024;11.726;2023-08-21T03:29:01;5.60;;;5.10;;
9536;SDS011;4807;48.024;11.726;2023-08-21T03:32:11;5.00;;;4.60;;
9536;SDS011;4807;48.024;11.726;2023-08-21T03:35:20;7.03;;;5.30;;
9536;SDS011;4807;48.024;11.726;2023-08-21T03:38:28;5.97;;;5.23;;
9536;SDS011;4807;48.024;11.726;2023-08-21T03:41:37;5.93;;;5.43;;
9536;SDS011;4807;48.024;11.726;2023-08-21T03:44:45;6.83;;;5.33;;
9536;SDS011;4807;48.024;11.726;2023-08-21T03:47:57;4.97;;;4.47;;
9536;SDS011;4807;48.024;11.726;2023-08-21T03:51:06;5.50;;;5.03;;
9536;SDS011;4807;48.024;11.726;2023-08-21T03:54:15;12.03;;;8.97;;
9536;SDS011;4807;48.024;11.726;2023-08-21T03:57:23;7.53;;;6.60;;
9536;SDS011;4807;48.024;11.726;2023-08-21T04:00:32;7.27;;;6.27;;
9536;SDS011;4807;48.024;11.726;2023-08-21T04:03:41;5.57;;;5.07;;
9536;SDS011;4807;48.024;11.726;2023-08-21T04:06:51;5.70;;;5.07;;
9536;SDS011;4807;48.024;11.726;2023-08-21T04:09:59;8.13;;;5.17;;
9536;SDS011;4807;48.024;11.726;2023-08-21T04:13:07;5.43;;;4.93;;
9536;SDS011;4807;48.024;11.726;2023-08-21T04:16:16;5.43;;;4.93;;
9536;SDS011;4807;48.024;11.726;2023-08-21T04:19:26;6.57;;;4.80;;
9536;SDS011;4807;48.024;11.726;2023-08-21T04:22:39;5.93;;;4.27;;
9536;SDS011;4807;48.024;11.726;2023-08-21T04:25:47;7.47;;;4.57;;
9536;SDS011;4807;48.024;11.726;2023-08-21T04:28:55;5.53;;;5.00;;
9536;SDS011;4807;48.024;11.726;2023-08-21T04:32:04;5.23;;;4.70;;
9536;SDS011;4807;48.024;11.726;2023-08-21T04:35:15;7.37;;;5.33;;
9536;SDS011;4807;48.024;11.726;2023-08-21T04:38:23;5.20;;;4.70;;
9536;SDS011;4807;48.024;11.726;2023-08-21T04:41:31;5.50;;;5.00;;
9536;SDS011;4807;48.024;11.726;2023-08-21T04:44:40;5.57;;;5.07;;
9536;SDS011;4807;48.024;11.726;2023-08-21T04:47:49;5.20;;;4.70;;
9536;SDS011;4807;48.024;11.726;2023-08-21T04:50:59;5.17;;;4.70;;
9536;SDS011;4807;48.024;11.726;2023-08-21T04:54:08;5.10;;;3.97;;
9536;SDS011;4807;48.024;11.726;2023-08-21T04:57:18;5.53;;;4.80;;
9536;SDS011;4807;48.024;11.726;2023-08-21T05:00:27;5.10;;;4.67;;
9536;SDS011;4807;48.024;11.726;2023-08-21T05:03:36;5.47;;;4.97;;
9536;SDS011;4807;48.024;11.726;2023-08-21T05:06:46;5.53;;;4.10;;
9536;SDS011;4807;48.024;11.726;2023-08-21T05:09:55;6.23;;;5.57;;
9536;SDS011;4807;48.024;11.726;2023-08-21T05:13:09;5.33;;;4.83;;
9536;SDS011;4807;48.024;11.726;2023-08-21T05:16:17;10.80;;;5.37;;
9536;SDS011;4807;48.024;11.726;2023-08-21T05:19:26;7.50;;;5.17;;
9536;SDS011;4807;48.024;11.726;2023-08-21T05:22:37;10.70;;;5.40;;
9536;SDS011;4807;48.024;11.726;2023-08-21T05:25:46;8.17;;;5.13;;
9536;SDS011;4807;48.024;11.726;2023-08-21T05:28:56;6.50;;;5.30;;
9536;SDS011;4807;48.024;11.726;2023-08-21T05:32:04;5.27;;;4.73;;
9536;SDS011;4807;48.024;11.726;2023-08-21T05:35:14;8.70;;;4.93;;
9536;SDS011;4807;48.024;11.726;2023-08-21T05:38:24;7.47;;;4.83;;
9536;SDS011;4807;48.024;11.726;2023-08-21T05:41:32;7.93;;;4.63;;
9536;SDS011;4807;48.024;11.726;2023-08-21T05:44:41;8.80;;;4.83;;
9536;SDS011;4807;48.024;11.726;2023-08-21T05:47:50;10.43;;;4.83;;
9536;SDS011;4807;48.024;11.726;2023-08-21T05:50:58;7.57;;;4.43;;
9536;SDS011;4807;48.024;11.726;2023-08-21T05:54:08;5.07;;;4.67;;
9536;SDS011;4807;48.024;11.726;2023-08-21T05:57:18;5.77;;;4.77;;
9536;SDS011;4807;48.024;11.726;2023-08-21T06:00:26;6.30;;;4.60;;
9536;SDS011;4807;48.024;11.726;2023-08-21T06:03:39;5.73;;;5.13;;
9536;SDS011;4807;48.024;11.726;2023-08-21T06:07:03;4.90;;;4.53;;
9536;SDS011;4807;48.024;11.726;2023-08-21T06:10:13;5.53;;;4.73;;
9536;SDS011;4807;48.024;11.726;2023-08-21T06:13:21;4.60;;;4.20;;
9536;SDS011;4807;48.024;11.726;2023-08-21T06:16:32;5.43;;;4.30;;
9536;SDS011;4807;48.024;11.726;2023-08-21T06:19:40;4.60;;;4.20;;
9536;SDS011;4807;48.024;11.726;2023-08-21T06:22:49;4.23;;;3.67;;
9536;SDS011;4807;48.024;11.726;2023-08-21T06:25:59;6.53;;;3.97;;
9536;SDS011;4807;48.024;11.726;2023-08-21T06:29:08;3.53;;;3.23;;
9536;SDS011;4807;48.024;11.726;2023-08-21T06:32:16;4.03;;;3.67;;
9536;SDS011;4807;48.024;11.726;2023-08-21T06:35:27;4.07;;;3.53;;
9536;SDS011;4807;48.024;11.726;2023-08-21T06:38:35;3.90;;;3.50;;
9536;SDS011;4807;48.024;11.726;2023-08-21T06:41:45;3.50;;;3.20;;
9536;SDS011;4807;48.024;11.726;2023-08-21T06:44:57;5.37;;;3.47;;
9536;SDS011;4807;48.024;11.726;2023-08-21T06:48:06;3.33;;;3.13;;
9536;SDS011;4807;48.024;11.726;2023-08-21T06:51:14;7.40;;;3.70;;
9536;SDS011;4807;48.024;11.726;2023-08-21T06:54:23;3.60;;;3.30;;
9536;SDS011;4807;48.024;11.726;2023-08-21T06:57:33;3.77;;;2.90;;
9536;SDS011;4807;48.024;11.726;2023-08-21T07:00:41;5.30;;;2.90;;
9536;SDS011;4807;48.024;11.726;2023-08-21T07:03:49;3.67;;;3.33;;
9536;SDS011;4807;48.024;11.726;2023-08-21T07:06:58;5.50;;;3.40;;
9536;SDS011;4807;48.024;11.726;2023-08-21T07:10:06;5.43;;;3.40;;
9536;SDS011;4807;48.024;11.726;2023-08-21T07:13:17;7.33;;;3.50;;
9536;SDS011;4807;48.024;11.726;2023-08-21T07:16:26;5.03;;;3.40;;
9536;SDS011;4807;48.024;11.726;2023-08-21T07:19:35;3.80;;;3.50;;
9536;SDS011;4807;48.024;11.726;2023-08-21T07:22:43;5.23;;;3.20;;
9536;SDS011;4807;48.024;11.726;2023-08-21T07:25:51;4.03;;;3.60;;
9536;SDS011;4807;48.024;11.726;2023-08-21T07:29:01;4.47;;;3.13;;
9536;SDS011;4807;48.024;11.726;2023-08-21T07:32:10;4.10;;;3.33;;
9536;SDS011;4807;48.024;11.726;2023-08-21T07:35:19;6.50;;;3.63;;
9536;SDS011;4807;48.024;11.726;2023-08-21T07:38:28;4.27;;;3.60;;
9536;SDS011;4807;48.024;11.726;2023-08-21T07:41:36;4.33;;;3.93;;
9536;SDS011;4807;48.024;11.726;2023-08-21T07:44:46;6.30;;;3.20;;
9536;SDS011;4807;48.024;11.726;2023-08-21T07:47:54;3.53;;;3.33;;
9536;SDS011;4807;48.024;11.726;2023-08-21T07:51:19;4.43;;;3.63;;
9536;SDS011;4807;48.024;11.726;2023-08-21T07:54:28;6.03;;;3.40;;
9536;SDS011;4807;48.024;11.726;2023-08-21T07:57:36;5.57;;;3.63;;
9536;SDS011;4807;48.024;11.726;2023-08-21T08:00:45;4.23;;;3.83;;
9536;SDS011;4807;48.024;11.726;2023-08-21T08:03:55;4.80;;;3.80;;
9536;SDS011;4807;48.024;11.726;2023-08-21T08:07:03;5.13;;;4.63;;
9536;SDS011;4807;48.024;11.726;2023-08-21T08:10:11;3.57;;;3.27;;
9536;SDS011;4807;48.024;11.726;2023-08-21T08:13:20;3.97;;;3.67;;
9536;SDS011;4807;48.024;11.726;2023-08-21T08:16:29;5.13;;;4.23;;
9536;SDS011;4807;48.024;11.726;2023-08-21T08:19:38;4.53;;;4.13;;
9536;SDS011;4807;48.024;11.726;2023-08-21T08:22:46;3.63;;;3.33;;
9536;SDS011;4807;48.024;11.726;2023-08-21T08:25:54;4.37;;;3.53;;
9536;SDS011;4807;48.024;11.726;2023-08-21T08:29:03;8.83;;;4.07;;
9536;SDS011;4807;48.024;11.726;2023-08-21T08:32:13;5.17;;;3.90;;
9536;SDS011;4807;48.024;11.726;2023-08-21T08:35:22;4.10;;;3.43;;
9536;SDS011;4807;48.024;11.726;2023-08-21T08:38:30;5.57;;;4.17;;
9536;SDS011;4807;48.024;11.726;2023-08-21T08:41:41;4.83;;;3.67;;
9536;SDS011;4807;48.024;11.726;2023-08-21T08:44:58;5.07;;;3.83;;
9536;SDS011;4807;48.024;11.726;2023-08-21T08:48:11;4.10;;;3.70;;
9536;SDS011;4807;48.024;11.726;2023-08-21T08:51:20;8.33;;;4.40;;
9536;SDS011;4807;48.024;11.726;2023-08-21T08:54:32;7.33;;;3.90;;
9536;SDS011;4807;48.024;11.726;2023-08-21T08:57:41;4.00;;;3.70;;
9536;SDS011;4807;48.024;11.726;2023-08-21T09:00:50;6.90;;;4.10;;
9536;SDS011;4807;48.024;11.726;2023-08-21T09:04:00;5.57;;;4.37;;
9536;SDS011;4807;48.024;11.726;2023-08-21T09:07:09;4.77;;;4.17;;
9536;SDS011;4807;48.024;11.726;2023-08-21T09:10:19;3.70;;;3.37;;
9536;SDS011;4807;48.024;11.726;2023-08-21T09:13:27;4.63;;;3.83;;
9536;SDS011;4807;48.024;11.726;2023-08-21T09:16:35;4.30;;;3.90;;
9536;SDS011;4807;48.024;11.726;2023-08-21T09:19:45;4.07;;;3.70;;
9536;SDS011;4807;48.024;11.726;2023-08-21T09:22:53;7.73;;;4.03;;
9536;SDS011;4807;48.024;11.726;2023-08-21T09:26:02;3.80;;;3.50;;
9536;SDS011;4807;48.024;11.726;2023-08-21T09:29:10;3.37;;;3.17;;
9536;SDS011;4807;48.024;11.726;2023-08-21T09:32:19;4.23;;;2.87;;
9536;SDS011;4807;48.024;11.726;2023-08-21T09:35:29;4.40;;;3.47;;
9536;SDS011;4807;48.024;11.726;2023-08-21T09:38:45;4.53;;;3.20;;
9536;SDS011;4807;48.024;11.726;2023-08-21T09:41:55;5.23;;;3.20;;
9536;SDS011;4807;48.024;11.726;2023-08-21T09:45:04;6.33;;;3.30;;
9536;SDS011;4807;48.024;11.726;2023-08-21T09:48:14;4.67;;;3.73;;
9536;SDS011;4807;48.024;11.726;2023-08-21T09:51:25;3.17;;;2.97;;
9536;SDS011;4807;48.024;11.726;2023-08-21T09:54:34;3.07;;;2.87;;
9536;SDS011;4807;48.024;11.726;2023-08-21T09:57:44;4.20;;;3.40;;
9536;SDS011;4807;48.024;11.726;2023-08-21T10:00:57;3.80;;;3.57;;
9536;SDS011;4807;48.024;11.726;2023-08-21T10:04:07;3.80;;;3.37;;
9536;SDS011;4807;48.024;11.726;2023-08-21T10:07:20;3.33;;;3.03;;
9536;SDS011;4807;48.024;11.726;2023-08-21T10:10:34;4.30;;;3.40;;
9536;SDS011;4807;48.024;11.726;2023-08-21T10:13:45;4.80;;;2.90;;
9536;SDS011;4807;48.024;11.726;2023-08-21T10:16:55;4.37;;;3.30;;
9536;SDS011;4807;48.024;11.726;2023-08-21T10:20:04;3.20;;;2.90;;
9536;SDS011;4807;48.024;11.726;2023-08-21T10:23:27;3.00;;;2.80;;
9536;SDS011;4807;48.024;11.726;2023-08-21T10:26:37;3.37;;;2.57;;
9536;SDS011;4807;48.024;11.726;2023-08-21T10:29:55;4.33;;;3.20;;
9536;SDS011;4807;48.024;11.726;2023-08-21T10:33:05;4.40;;;3.00;;
9536;SDS011;4807;48.024;11.726;2023-08-21T10:36:13;3.23;;;2.97;;
9536;SDS011;4807;48.024;11.726;2023-08-21T10:39:24;3.50;;;3.10;;
9536;SDS011;4807;48.024;11.726;2023-08-21T10:42:37;3.20;;;2.90;;
9536;SDS011;4807;48.024;11.726;2023-08-21T10:45:53;4.63;;;3.20;;
9536;SDS011;4807;48.024;11.726;2023-08-21T10:49:02;3.37;;;2.67;;
9536;SDS011;4807;48.024;11.726;2023-08-21T10:52:10;3.53;;;3.30;;
9536;SDS011;4807;48.024;11.726;2023-08-21T10:55:21;5.97;;;3.20;;
9536;SDS011;4807;48.024;11.726;2023-08-21T10:58:34;3.27;;;3.07;;
9536;SDS011;4807;48.024;11.726;2023-08-21T11:01:46;4.00;;;3.60;;
9536;SDS011;4807;48.024;11.726;2023-08-21T11:04:55;4.13;;;2.90;;
9536;SDS011;4807;48.024;11.726;2023-08-21T11:08:05;4.30;;;3.20;;
9536;SDS011;4807;48.024;11.726;2023-08-21T11:11:16;3.10;;;2.90;;
9536;SDS011;4807;48.024;11.726;2023-08-21T11:14:25;3.60;;;3.30;;
9536;SDS011;4807;48.024;11.726;2023-08-21T11:17:33;3.17;;;2.97;;
9536;SDS011;4807;48.024;11.726;2023-08-21T11:20:42;3.83;;;3.40;;
9536;SDS011;4807;48.024;11.726;2023-08-21T11:23:51;3.73;;;3.40;;
9536;SDS011;4807;48.024;11.726;2023-08-21T11:27:01;3.90;;;3.30;;
9536;SDS011;4807;48.024;11.726;2023-08-21T11:30:11;4.90;;;3.63;;
9536;SDS011;4807;48.024;11.726;2023-08-21T11:33:20;4.23;;;3.90;;
9536;SDS011;4807;48.024;11.726;2023-08-21T11:36:28;3.57;;;3.27;;
9536;SDS011;4807;48.024;11.726;2023-08-21T11:39:44;3.70;;;3.40;;
9536;SDS011;4807;48.024;11.726;2023-08-21T11:43:00;4.20;;;3.77;;
9536;SDS011;4807;48.024;11.726;2023-08-21T11:46:10;5.27;;;3.73;;
9536;SDS011;4807;48.024;11.726;2023-08-21T11:49:20;4.77;;;2.83;;
9536;SDS011;4807;48.024;11.726;2023-08-21T11:52:30;4.50;;;3.03;;
9536;SDS011;4807;48.024;11.726;2023-08-21T11:55:39;3.50;;;3.20;;
9536;SDS011;4807;48.024;11.726;2023-08-21T11:58:48;5.03;;;3.47;;
9536;SDS011;4807;48.024;11.726;2023-08-21T12:01:57;4.33;;;3.93;;
9536;SDS011;4807;48.024;11.726;2023-08-21T12:05:06;7.03;;;4.10;;
9536;SDS011;4807;48.024;11.726;2023-08-21T12:08:22;4.30;;;3.97;;
9536;SDS011;4807;48.024;11.726;2023-08-21T12:11:30;4.67;;;3.90;;
9536;SDS011;4807;48.024;11.726;2023-08-21T12:14:40;4.63;;;4.20;;
9536;SDS011;4807;48.024;11.726;2023-08-21T12:17:48;4.20;;;3.73;;
9536;SDS011;4807;48.024;11.726;2023-08-21T12:20:56;4.30;;;3.90;;
9536;SDS011;4807;48.024;11.726;2023-08-21T12:24:05;4.20;;;3.80;;
9536;SDS011;4807;48.024;11.726;2023-08-21T12:27:14;5.10;;;4.27;;
9536;SDS011;4807;48.024;11.726;2023-08-21T12:30:24;4.83;;;3.80;;
9536;SDS011;4807;48.024;11.726;2023-08-21T12:33:33;3.70;;;3.40;;
9536;SDS011;4807;48.024;11.726;2023-08-21T12:36:41;7.43;;;4.03;;
9536;SDS011;4807;48.024;11.726;2023-08-21T12:39:49;4.00;;;3.70;;
9536;SDS011;4807;48.024;11.726;2023-08-21T12:42:57;4.83;;;3.50;;
9536;SDS011;4807;48.024;11.726;2023-08-21T12:46:07;5.47;;;3.53;;
9536;SDS011;4807;48.024;11.726;2023-08-21T12:49:17;3.80;;;3.47;;
9536;SDS011;4807;48.024;11.726;2023-08-21T12:52:25;3.70;;;3.40;;
9536;SDS011;4807;48.024;11.726;2023-08-21T12:55:33;3.73;;;3.40;;
9536;SDS011;4807;48.024;11.726;2023-08-21T12:58:42;5.03;;;3.80;;
9536;SDS011;4807;48.024;11.726;2023-08-21T13:01:52;3.93;;;3.57;;
9536;SDS011;4807;48.024;11.726;2023-08-21T13:05:00;5.43;;;3.20;;
9536;SDS011;4807;48.024;11.726;2023-08-21T13:08:09;3.73;;;3.07;;
9536;SDS011;4807;48.024;11.726;2023-08-21T13:11:17;3.43;;;3.13;;
9536;SDS011;4807;48.024;11.726;2023-08-21T13:14:25;3.60;;;3.30;;
9536;SDS011;4807;48.024;11.726;2023-08-21T13:17:39;3.43;;;3.23;;
9536;SDS011;4807;48.024;11.726;2023-08-21T13:20:48;6.17;;;3.40;;
9536;SDS011;4807;48.024;11.726;2023-08-21T13:23:56;5.50;;;3.43;;
9536;SDS011;4807;48.024;11.726;2023-08-21T13:27:08;3.60;;;3.27;;
9536;SDS011;4807;48.024;11.726;2023-08-21T13:30:17;4.60;;;3.40;;
9536;SDS011;4807;48.024;11.726;2023-08-21T13:33:28;3.97;;;3.30;;
9536;SDS011;4807;48.024;11.726;2023-08-21T13:36:37;3.20;;;3.00;;
9536;SDS011;4807;48.024;11.726;2023-08-21T13:39:45;5.93;;;3.57;;
9536;SDS011;4807;48.024;11.726;2023-08-21T13:42:54;6.33;;;3.53;;
9536;SDS011;4807;48.024;11.726;2023-08-21T13:46:07;3.80;;;3.50;;
9536;SDS011;4807;48.024;11.726;2023-08-21T13:49:17;5.83;;;3.60;;
9536;SDS011;4807;48.024;11.726;2023-08-21T13:52:25;7.17;;;3.60;;
9536;SDS011;4807;48.024;11.726;2023-08-21T13:55:33;3.97;;;3.43;;
9536;SDS011;4807;48.024;11.726;2023-08-21T13:58:41;3.40;;;3.10;;
9536;SDS011;4807;48.024;11.726;2023-08-21T14:01:49;5.40;;;3.43;;
9536;SDS011;4807;48.024;11.726;2023-08-21T14:04:59;6.90;;;3.30;;
9536;SDS011;4807;48.024;11.726;2023-08-21T14:08:08;4.80;;;3.40;;
9536;SDS011;4807;48.024;11.726;2023-08-21T14:11:16;4.03;;;3.70;;
9536;SDS011;4807;48.024;11.726;2023-08-21T14:14:24;3.73;;;3.43;;
9536;SDS011;4807;48.024;11.726;2023-08-21T14:17:32;4.00;;;3.70;;
9536;SDS011;4807;48.024;11.726;2023-08-21T14:20:42;3.77;;;3.47;;
9536;SDS011;4807;48.024;11.726;2023-08-21T14:23:51;6.03;;;3.37;;
9536;SDS011;4807;48.024;11.726;2023-08-21T14:26:59;3.47;;;3.00;;
9536;SDS011;4807;48.024;11.726;2023-08-21T14:30:08;5.10;;;3.40;;
9536;SDS011;4807;48.024;11.726;2023-08-21T14:33:17;4.23;;;3.70;;
9536;SDS011;4807;48.024;11.726;2023-08-21T14:36:27;3.50;;;3.30;;
9536;SDS011;4807;48.024;11.726;2023-08-21T14:39:35;3.33;;;3.03;;
9536;SDS011;4807;48.024;11.726;2023-08-21T14:42:44;6.47;;;3.43;;
9536;SDS011;4807;48.024;11.726;2023-08-21T14:45:52;4.83;;;3.60;;
9536;SDS011;4807;48.024;11.726;2023-08-21T14:49:00;5.90;;;3.70;;
9536;SDS011;4807;48.024;11.726;2023-08-21T14:52:10;3.90;;;3.57;;
9536;SDS011;4807;48.024;11.726;2023-08-21T14:55:18;4.43;;;3.17;;
9536;SDS011;4807;48.024;11.726;2023-08-21T14:58:26;4.80;;;4.17;;
9536;SDS011;4807;48.024;11.726;2023-08-21T15:01:35;3.77;;;3.40;;
9536;SDS011;4807;48.024;11.726;2023-08-21T15:04:43;3.63;;;3.33;;
9536;SDS011;4807;48.024;11.726;2023-08-21T15:07:53;4.00;;;3.60;;
9536;SDS011;4807;48.024;11.726;2023-08-21T15:11:02;4.00;;;3.57;;
9536;SDS011;4807;48.024;11.726;2023-08-21T15:14:10;6.10;;;3.77;;
9536;SDS011;4807;48.024;11.726;2023-08-21T15:17:19;3.53;;;3.23;;
9536;SDS011;4807;48.024;11.726;2023-08-21T15:20:27;3.77;;;3.43;;
9536;SDS011;4807;48.024;11.726;2023-08-21T15:23:37;4.43;;;3.53;;
9536;SDS011;4807;48.024;11.726;2023-08-21T15:26:45;5.30;;;3.90;;
9536;SDS011;4807;48.024;11.726;2023-08-21T15:29:54;4.73;;;4.07;;
9536;SDS011;4807;48.024;11.726;2023-08-21T15:33:02;3.47;;;3.17;;
9536;SDS011;4807;48.024;11.726;2023-08-21T15:36:11;7.87;;;4.10;;
9536;SDS011;4807;48.024;11.726;2023-08-21T15:39:21;6.40;;;3.57;;
9536;SDS011;4807;48.024;11.726;2023-08-21T15:42:29;5.27;;;3.60;;
9536;SDS011;4807;48.024;11.726;2023-08-21T15:45:38;3.90;;;3.50;;
9536;SDS011;4807;48.024;11.726;2023-08-21T15:48:46;8.43;;;3.97;;
9536;SDS011;4807;48.024;11.726;2023-08-21T15:51:55;3.57;;;3.27;;
9536;SDS011;4807;48.024;11.726;2023-08-21T15:55:05;4.33;;;3.80;;
9536;SDS011;4807;48.024;11.726;2023-08-21T15:58:14;4.40;;;4.10;;
9536;SDS011;4807;48.024;11.726;2023-08-21T16:01:22;4.47;;;4.00;;
9536;SDS011;4807;48.024;11.726;2023-08-21T16:04:31;4.20;;;3.80;;
9536;SDS011;4807;48.024;11.726;2023-08-21T16:07:39;5.47;;;3.50;;
9536;SDS011;4807;48.024;11.726;2023-08-21T16:10:48;4.37;;;3.50;;
9536;SDS011;4807;48.024;11.726;2023-08-21T16:13:57;7.90;;;4.40;;
9536;SDS011;4807;48.024;11.726;2023-08-21T16:17:08;3.87;;;3.50;;
9536;SDS011;4807;48.024;11.726;2023-08-21T16:20:16;4.47;;;3.70;;
9536;SDS011;4807;48.024;11.726;2023-08-21T16:23:25;4.13;;;3.83;;
9536;SDS011;4807;48.024;11.726;2023-08-21T16:26:35;3.87;;;3.43;;
9536;SDS011;4807;48.024;11.726;2023-08-21T16:29:43;4.63;;;4.10;;
9536;SDS011;4807;48.024;11.726;2023-08-21T16:32:51;5.10;;;3.73;;
9536;SDS011;4807;48.024;11.726;2023-08-21T16:36:02;5.10;;;3.80;;
9536;SDS011;4807;48.024;11.726;2023-08-21T16:39:11;7.03;;;4.30;;
9536;SDS011;4807;48.024;11.726;2023-08-21T16:42:20;4.63;;;3.60;;
9536;SDS011;4807;48.024;11.726;2023-08-21T16:45:29;6.30;;;3.80;;
9536;SDS011;4807;48.024;11.726;2023-08-21T16:48:37;6.37;;;4.20;;
9536;SDS011;4807;48.024;11.726;2023-08-21T16:51:45;4.90;;;3.83;;
9536;SDS011;4807;48.024;11.726;2023-08-21T16:54:54;3.37;;;3.10;;
9536;SDS011;4807;48.024;11.726;2023-08-21T16:58:04;8.20;;;3.87;;
9536;SDS011;4807;48.024;11.726;2023-08-21T17:01:14;7.67;;;4.00;;
9536;SDS011;4807;48.024;11.726;2023-08-21T17:04:22;4.27;;;3.80;;
9536;SDS011;4807;48.024;11.726;2023-08-21T17:07:30;6.10;;;3.93;;
9536;SDS011;4807;48.024;11.726;2023-08-21T17:10:43;9.37;;;4.13;;
9536;SDS011;4807;48.024;11.726;2023-08-21T17:13:53;4.30;;;3.90;;
9536;SDS011;4807;48.024;11.726;2023-08-21T17:17:01;4.10;;;3.80;;
9536;SDS011;4807;48.024;11.726;2023-08-21T17:20:10;7.23;;;3.33;;
9536;SDS011;4807;48.024;11.726;2023-08-21T17:23:19;4.37;;;3.80;;
9536;SDS011;4807;48.024;11.726;2023-08-21T17:26:27;9.23;;;3.83;;
9536;SDS011;4807;48.024;11.726;2023-08-21T17:29:37;4.53;;;3.93;;
9536;SDS011;4807;48.024;11.726;2023-08-21T17:32:45;6.13;;;3.60;;
9536;SDS011;4807;48.024;11.726;2023-08-21T17:35:54;5.97;;;3.70;;
9536;SDS011;4807;48.024;11.726;2023-08-21T17:39:02;3.70;;;3.37;;
9536;SDS011;4807;48.024;11.726;2023-08-21T17:42:10;5.60;;;3.83;;
9536;SDS011;4807;48.024;11.726;2023-08-21T17:45:20;4.10;;;3.80;;
9536;SDS011;4807;48.024;11.726;2023-08-21T17:48:28;7.07;;;3.57;;
9536;SDS011;4807;48.024;11.726;2023-08-21T17:51:36;4.50;;;3.90;;
9536;SDS011;4807;48.024;11.726;2023-08-21T17:54:45;4.37;;;3.60;;
9536;SDS011;4807;48.024;11.726;2023-08-21T17:57:53;5.87;;;3.77;;
9536;SDS011;4807;48.024;11.726;2023-08-21T18:01:05;4.20;;;3.70;;
9536;SDS011;4807;48.024;11.726;2023-08-21T18:04:13;4.73;;;3.90;;
9536;SDS011;4807;48.024;11.726;2023-08-21T18:07:21;3.73;;;3.43;;
9536;SDS011;4807;48.024;11.726;2023-08-21T18:10:31;7.23;;;5.90;;
9536;SDS011;4807;48.024;11.726;2023-08-21T18:13:41;9.63;;;6.97;;
9536;SDS011;4807;48.024;11.726;2023-08-21T18:16:55;11.13;;;9.83;;
9536;SDS011;4807;48.024;11.726;2023-08-21T18:20:08;10.10;;;9.10;;
9536;SDS011;4807;48.024;11.726;2023-08-21T18:23:20;8.43;;;7.50;;
9536;SDS011;4807;48.024;11.726;2023-08-21T18:26:30;9.90;;;5.97;;
9536;SDS011;4807;48.024;11.726;2023-08-21T18:29:38;7.53;;;5.00;;
9536;SDS011;4807;48.024;11.726;2023-08-21T18:32:48;7.33;;;4.73;;
9536;SDS011;4807;48.024;11.726;2023-08-21T18:35:57;5.40;;;3.90;;
9536;SDS011;4807;48.024;11.726;2023-08-21T18:39:07;6.00;;;4.43;;
9536;SDS011;4807;48.024;11.726;2023-08-21T18:42:16;5.00;;;4.17;;
9536;SDS011;4807;48.024;11.726;2023-08-21T18:45:24;4.80;;;4.07;;
9536;SDS011;4807;48.024;11.726;2023-08-21T18:48:34;4.17;;;3.80;;
9536;SDS011;4807;48.024;11.726;2023-08-21T18:51:44;4.80;;;4.07;;
9536;SDS011;4807;48.024;11.726;2023-08-21T18:54:52;5.03;;;4.00;;
9536;SDS011;4807;48.024;11.726;2023-08-21T18:58:02;4.57;;;3.70;;
9536;SDS011;4807;48.024;11.726;2023-08-21T19:01:11;4.37;;;3.97;;
9536;SDS011;4807;48.024;11.726;2023-08-21T19:04:20;6.17;;;4.10;;
9536;SDS011;4807;48.024;11.726;2023-08-21T19:07:29;7.17;;;4.00;;
9536;SDS011;4807;48.024;11.726;2023-08-21T19:10:37;6.70;;;4.50;;
9536;SDS011;4807;48.024;11.726;2023-08-21T19:13:45;5.03;;;4.57;;
9536;SDS011;4807;48.024;11.726;2023-08-21T19:16:54;4.97;;;4.57;;